Time;durP1;ratioP1;P1;durP2;ratioP2;P2;SDS_P1;SDS_P2;PMS_P1;PMS_P2;Temp;Humidity;BMP_temperature;BMP_pressure;BME280_temperature;BME280_humidity;BME280_pressure;Samples;Min_cycle;Max_cycle;Signal;HPM_P1;HPM_P2
2021/03/28 00:00:57;;;;;;;2.10;1.80;;;20.10;42.40;;;;;;4946440;28;20513;-70
2021/03/28 00:03:26;;;;;;;2.63;1.73;;;20.10;42.40;;;;;;4970678;28;21009;-70
2021/03/28 00:05:53;;;;;;;2.10;1.20;;;20.10;42.50;;;;;;4976927;28;20470;-70
2021/03/28 00:08:21;;;;;;;4.93;1.60;;;20.10;42.30;;;;;;4974238;28;20485;-69
2021/03/28 00:10:48;;;;;;;3.23;1.73;;;20.10;42.40;;;;;;4975500;28;20921;-70
2021/03/28 00:13:15;;;;;;;5.43;2.60;;;20.10;42.30;;;;;;4970786;28;20543;-70
2021/03/28 00:15:46;;;;;;;3.43;1.70;;;20.20;42.10;;;;;;4947279;28;20494;-70
2021/03/28 00:18:19;;;;;;;2.60;1.60;;;20.20;42.00;;;;;;4946110;28;20481;-70
2021/03/28 00:20:45;;;;;;;1.93;1.33;;;20.20;42.00;;;;;;4960590;28;21000;-70
2021/03/28 00:23:22;;;;;;;3.20;1.60;;;20.20;42.10;;;;;;4969247;28;20516;-69
2021/03/28 00:25:55;;;;;;;3.53;1.67;;;20.20;41.90;;;;;;4970504;28;20481;-69
2021/03/28 00:28:29;;;;;;;2.30;1.57;;;20.20;41.90;;;;;;4971489;28;20864;-69
2021/03/28 00:31:15;;;;;;;1.47;1.17;;;20.20;41.90;;;;;;4964288;28;20489;-69
2021/03/28 00:33:44;;;;;;;2.50;1.60;;;20.20;42.00;;;;;;4948414;28;21128;-70
2021/03/28 00:36:12;;;;;;;3.10;1.50;;;20.20;42.20;;;;;;4946686;28;20492;-70
2021/03/28 00:38:51;;;;;;;4.80;1.70;;;20.10;42.00;;;;;;4974660;28;20532;-70
2021/03/28 00:41:19;;;;;;;1.87;1.77;;;20.10;42.30;;;;;;4974886;28;20485;-69
2021/03/28 00:43:48;;;;;;;5.03;1.40;;;20.10;42.40;;;;;;4968772;28;20492;-68
2021/03/28 00:46:37;;;;;;;2.23;1.83;;;20.10;42.20;;;;;;4972640;28;20492;-70
2021/03/28 00:49:05;;;;;;;5.70;1.63;;;20.10;42.50;;;;;;4969429;28;20480;-69
2021/03/28 00:51:31;;;;;;;3.50;1.50;;;20.00;42.30;;;;;;4974322;28;20573;-69
2021/03/28 00:53:58;;;;;;;3.60;1.50;;;20.00;42.20;;;;;;4974377;28;21057;-70
2021/03/28 00:56:26;;;;;;;7.80;1.73;;;20.00;42.40;;;;;;4973126;28;20490;-71
2021/03/28 00:58:56;;;;;;;3.07;1.40;;;20.00;42.30;;;;;;4976252;28;20552;-70
2021/03/28 01:01:28;;;;;;;2.73;1.20;;;20.00;42.30;;;;;;4973049;28;20486;-70
2021/03/28 01:04:39;;;;;;;2.13;1.70;;;20.00;42.50;;;;;;4974788;28;20484;-70
2021/03/28 01:07:14;;;;;;;2.67;1.67;;;20.00;42.20;;;;;;4928725;28;20515;-70
2021/03/28 01:10:17;;;;;;;2.90;1.47;;;20.10;42.30;;;;;;4966157;28;20491;-70
2021/03/28 01:13:04;;;;;;;1.60;1.50;;;20.10;42.30;;;;;;4944399;28;20476;-70
2021/03/28 01:16:17;;;;;;;2.03;1.37;;;20.10;42.10;;;;;;4975514;28;20481;-70
2021/03/28 01:18:48;;;;;;;5.00;1.73;;;20.10;42.20;;;;;;4965410;28;21445;-70
2021/03/28 01:21:18;;;;;;;3.50;1.70;;;20.10;42.10;;;;;;4966228;28;21512;-70
2021/03/28 01:23:45;;;;;;;2.60;1.73;;;20.10;42.00;;;;;;4972999;28;20496;-70
2021/03/28 01:26:21;;;;;;;3.23;2.40;;;20.10;41.90;;;;;;4972550;28;20500;-70
2021/03/28 01:28:54;;;;;;;2.90;1.60;;;20.10;42.20;;;;;;4947540;28;20486;-71
2021/03/28 01:31:34;;;;;;;4.00;2.00;;;20.10;42.10;;;;;;4972393;28;20489;-71
2021/03/28 01:34:15;;;;;;;4.73;1.63;;;20.10;42.30;;;;;;4975775;28;20476;-71
2021/03/28 01:36:42;;;;;;;2.07;1.80;;;20.00;42.30;;;;;;4967886;28;20478;-71
2021/03/28 01:39:10;;;;;;;7.60;1.90;;;20.00;42.20;;;;;;4964777;28;21042;-71
2021/03/28 01:41:39;;;;;;;3.83;2.00;;;20.00;42.20;;;;;;4975334;28;20493;-71
2021/03/28 01:44:12;;;;;;;2.60;1.43;;;20.00;42.10;;;;;;4968245;28;20470;-71
2021/03/28 01:46:45;;;;;;;3.60;1.83;;;20.00;42.20;;;;;;4951251;28;20489;-71
2021/03/28 01:49:17;;;;;;;5.40;1.60;;;20.00;42.30;;;;;;4937405;28;20496;-71
2021/03/28 01:52:07;;;;;;;1.53;1.30;;;20.00;42.40;;;;;;4945242;28;21017;-70
2021/03/28 01:54:41;;;;;;;3.60;1.67;;;20.00;42.30;;;;;;4963879;28;20486;-71
2021/03/28 01:57:12;;;;;;;7.37;1.80;;;20.00;42.20;;;;;;4972986;28;20481;-71
2021/03/28 01:59:50;;;;;;;3.57;1.53;;;20.00;42.40;;;;;;4974674;28;21005;-69
2021/03/28 02:02:33;;;;;;;2.60;1.73;;;19.90;42.20;;;;;;4966856;28;20718;-72
2021/03/28 02:05:11;;;;;;;2.97;1.50;;;20.00;42.40;;;;;;4975795;28;20472;-71
2021/03/28 02:07:46;;;;;;;3.97;1.97;;;19.90;42.30;;;;;;4972251;28;20504;-71
2021/03/28 02:10:21;;;;;;;6.63;1.47;;;19.90;42.20;;;;;;4959156;28;20572;-71
2021/03/28 02:12:49;;;;;;;4.47;1.47;;;19.90;42.40;;;;;;4961513;28;20552;-71
2021/03/28 02:15:37;;;;;;;8.00;2.40;;;20.00;42.40;;;;;;4971603;28;20496;-71
2021/03/28 02:18:17;;;;;;;1.53;1.43;;;20.00;42.00;;;;;;4969404;28;20492;-71
2021/03/28 02:20:48;;;;;;;2.23;1.87;;;20.10;42.00;;;;;;4966603;28;20543;-70
2021/03/28 02:23:26;;;;;;;1.50;1.20;;;20.10;41.90;;;;;;4945089;28;20478;-71
2021/03/28 02:25:56;;;;;;;1.57;1.27;;;20.10;41.80;;;;;;4973233;28;20905;-71
2021/03/28 02:28:29;;;;;;;3.13;1.60;;;20.10;41.70;;;;;;4973228;28;20965;-71
2021/03/28 02:30:59;;;;;;;1.40;1.30;;;20.10;41.60;;;;;;4973643;28;20486;-71
2021/03/28 02:33:27;;;;;;;4.17;2.30;;;20.10;42.40;;;;;;4971891;28;20895;-70
2021/03/28 02:36:03;;;;;;;3.20;1.93;;;20.10;41.70;;;;;;4975868;28;20486;-71
2021/03/28 02:38:44;;;;;;;7.60;2.27;;;20.10;41.70;;;;;;4973954;28;20494;-71
2021/03/28 02:41:12;;;;;;;2.30;2.00;;;20.10;41.80;;;;;;4947636;28;20568;-71
2021/03/28 02:43:41;;;;;;;7.87;1.87;;;20.10;41.90;;;;;;4968510;28;20596;-71
2021/03/28 02:46:38;;;;;;;2.63;1.57;;;20.10;42.00;;;;;;4991187;28;20503;-71
2021/03/28 02:49:38;;;;;;;3.20;1.53;;;20.00;42.00;;;;;;4987868;28;20460;-71
2021/03/28 02:52:31;;;;;;;3.40;2.20;;;20.00;42.10;;;;;;4977252;28;20485;-71
2021/03/28 02:55:04;;;;;;;3.83;1.50;;;20.00;42.20;;;;;;4973644;28;20488;-71
2021/03/28 02:57:39;;;;;;;3.60;1.47;;;20.00;42.10;;;;;;4965157;28;20923;-71
2021/03/28 03:00:14;;;;;;;2.43;1.67;;;20.00;42.30;;;;;;4971012;28;20920;-70
2021/03/28 03:03:06;;;;;;;3.27;1.50;;;20.00;42.30;;;;;;4970650;28;20494;-71
2021/03/28 03:05:54;;;;;;;4.30;1.70;;;20.00;42.20;;;;;;4954764;28;20499;-71
2021/03/28 03:08:21;;;;;;;2.33;1.73;;;19.90;42.20;;;;;;4956611;28;20474;-72
2021/03/28 03:11:14;;;;;;;1.93;1.20;;;19.90;42.10;;;;;;4977881;28;20489;-71
2021/03/28 03:13:47;;;;;;;1.33;1.20;;;19.90;42.10;;;;;;4967324;28;20479;-71
2021/03/28 03:16:17;;;;;;;4.40;1.57;;;19.90;42.20;;;;;;4946932;28;20474;-71
2021/03/28 03:19:23;;;;;;;2.07;1.47;;;20.00;42.00;;;;;;4950926;28;20802;-71
2021/03/28 03:22:14;;;;;;;2.60;1.60;;;20.00;41.90;;;;;;4962284;28;21045;-70
2021/03/28 03:25:03;;;;;;;1.77;1.37;;;20.00;41.80;;;;;;4970162;28;20481;-71
2021/03/28 03:27:54;;;;;;;2.70;1.70;;;20.00;42.00;;;;;;4974942;28;21071;-71
2021/03/28 03:30:34;;;;;;;1.93;1.53;;;20.10;41.90;;;;;;4967618;28;20547;-71
2021/03/28 03:33:29;;;;;;;2.20;1.60;;;20.00;41.90;;;;;;4977053;28;20980;-71
2021/03/28 03:36:07;;;;;;;5.23;2.07;;;20.10;41.90;;;;;;4977092;28;20483;-71
2021/03/28 03:38:47;;;;;;;1.70;1.53;;;20.00;41.80;;;;;;4974358;28;20493;-71
2021/03/28 03:41:22;;;;;;;2.50;1.60;;;20.00;42.10;;;;;;4962656;28;20492;-71
2021/03/28 03:44:03;;;;;;;5.00;2.00;;;20.00;42.00;;;;;;4959794;28;20487;-71
2021/03/28 03:46:46;;;;;;;3.77;1.60;;;19.90;42.10;;;;;;4974343;28;21521;-71
2021/03/28 03:49:31;;;;;;;2.17;1.07;;;19.90;42.10;;;;;;4950554;28;20474;-72
2021/03/28 03:52:33;;;;;;;1.53;1.23;;;20.00;41.90;;;;;;4978218;28;21670;-71
2021/03/28 03:55:03;;;;;;;2.00;1.57;;;20.00;41.90;;;;;;4959311;28;20477;-72
2021/03/28 03:57:33;;;;;;;3.17;1.83;;;20.00;41.60;;;;;;4998696;28;20474;-72
2021/03/28 04:00:12;;;;;;;2.60;1.60;;;20.10;41.70;;;;;;4999529;28;20488;-72
2021/03/28 04:02:41;;;;;;;2.97;1.40;;;20.10;41.70;;;;;;4978153;28;21000;-71
2021/03/28 04:05:23;;;;;;;2.40;2.03;;;20.10;41.60;;;;;;4967151;28;20484;-69
2021/03/28 04:07:57;;;;;;;3.53;1.93;;;20.10;41.50;;;;;;4976234;28;20482;-69
2021/03/28 04:10:37;;;;;;;3.47;1.70;;;20.10;41.50;;;;;;4974934;28;21005;-70
2021/03/28 04:13:28;;;;;;;3.30;1.70;;;20.00;41.60;;;;;;4972314;28;20512;-70
2021/03/28 04:16:04;;;;;;;1.83;1.50;;;20.00;41.60;;;;;;4977128;28;20490;-70
2021/03/28 04:19:01;;;;;;;2.00;1.73;;;20.10;41.90;;;;;;4956684;28;20502;-70
2021/03/28 04:21:32;;;;;;;3.50;1.60;;;20.10;41.70;;;;;;4945650;28;21199;-70
2021/03/28 04:24:14;;;;;;;2.90;1.90;;;20.10;41.60;;;;;;4976506;28;20488;-70
2021/03/28 04:26:58;;;;;;;2.57;1.50;;;20.10;41.70;;;;;;4973676;28;20477;-70
2021/03/28 04:29:25;;;;;;;3.40;1.10;;;20.10;42.20;;;;;;4975270;28;20486;-69
2021/03/28 04:32:22;;;;;;;3.43;1.60;;;20.10;41.30;;;;;;4977388;28;20609;-70
2021/03/28 04:35:04;;;;;;;4.73;1.67;;;20.10;41.50;;;;;;4971541;28;20482;-70
2021/03/28 04:37:36;;;;;;;2.33;1.30;;;20.10;41.60;;;;;;4973369;28;20506;-70
2021/03/28 04:40:30;;;;;;;4.50;1.50;;;20.00;41.60;;;;;;4971367;28;20469;-70
2021/03/28 04:43:25;;;;;;;3.93;2.00;;;20.00;41.90;;;;;;4971427;28;20553;-70
2021/03/28 04:46:06;;;;;;;5.40;1.63;;;19.90;41.70;;;;;;4975856;28;20477;-70
2021/03/28 04:49:05;;;;;;;1.50;1.40;;;19.90;42.00;;;;;;4973954;28;20490;-70
2021/03/28 04:52:03;;;;;;;2.63;1.50;;;19.90;42.00;;;;;;4973116;28;20474;-70
2021/03/28 04:54:48;;;;;;;1.97;1.40;;;19.90;41.80;;;;;;4962838;28;20489;-69
2021/03/28 04:57:33;;;;;;;1.90;1.43;;;19.90;41.60;;;;;;4946979;28;20483;-70
2021/03/28 05:00:25;;;;;;;2.43;1.37;;;20.00;41.50;;;;;;4975592;28;20481;-70
2021/03/28 05:03:15;;;;;;;3.40;1.70;;;20.00;41.60;;;;;;4975810;28;20466;-69
2021/03/28 05:05:53;;;;;;;1.40;1.30;;;20.00;41.50;;;;;;4976192;28;20500;-70
2021/03/28 05:08:43;;;;;;;2.77;1.30;;;20.00;41.50;;;;;;4968963;28;20581;-70
2021/03/28 05:11:43;;;;;;;5.17;2.10;;;20.00;41.40;;;;;;4972567;28;20519;-69
2021/03/28 05:14:41;;;;;;;5.83;2.00;;;20.00;41.30;;;;;;4971526;28;20485;-70
2021/03/28 05:17:33;;;;;;;6.93;1.23;;;20.00;41.40;;;;;;4976843;28;20480;-70
2021/03/28 05:20:16;;;;;;;2.40;1.40;;;20.10;41.50;;;;;;4967316;28;20484;-70
2021/03/28 05:23:15;;;;;;;5.40;1.60;;;20.10;41.30;;;;;;4954745;28;20519;-70
2021/03/28 05:25:54;;;;;;;1.53;1.40;;;20.10;41.30;;;;;;4939274;28;20480;-70
2021/03/28 05:28:43;;;;;;;3.63;1.60;;;20.10;41.20;;;;;;4974709;28;20481;-70
2021/03/28 05:31:28;;;;;;;3.37;1.30;;;20.10;41.10;;;;;;4972271;28;20831;-70
2021/03/28 05:34:05;;;;;;;5.00;1.73;;;20.10;41.10;;;;;;4975808;28;20517;-70
2021/03/28 05:36:47;;;;;;;4.00;2.20;;;20.20;41.10;;;;;;4972046;28;20585;-70
2021/03/28 05:39:32;;;;;;;3.93;1.97;;;20.20;41.10;;;;;;4976810;28;20470;-70
2021/03/28 05:42:40;;;;;;;1.93;1.40;;;20.20;41.00;;;;;;4955628;28;21151;-70
2021/03/28 05:45:26;;;;;;;2.60;1.70;;;20.20;41.00;;;;;;4973655;28;21016;-70
2021/03/28 05:48:05;;;;;;;2.60;1.33;;;20.20;41.00;;;;;;4975773;28;21055;-70
2021/03/28 05:50:33;;;;;;;1.90;1.30;;;20.10;41.00;;;;;;4963303;28;20482;-70
2021/03/28 05:53:28;;;;;;;2.83;1.60;;;20.20;41.20;;;;;;4976573;28;20484;-70
2021/03/28 05:56:32;;;;;;;5.63;2.00;;;20.20;41.10;;;;;;4974501;28;20896;-70
2021/03/28 05:59:15;;;;;;;2.23;1.67;;;20.20;41.10;;;;;;4975465;28;20472;-69
2021/03/28 06:01:49;;;;;;;1.50;1.23;;;20.20;41.00;;;;;;4915589;28;20486;-70
2021/03/28 06:04:51;;;;;;;3.33;1.60;;;20.30;41.00;;;;;;4965982;28;20481;-70
2021/03/28 06:08:18;;;;;;;2.17;1.30;;;20.30;41.00;;;;;;4946830;28;20481;-70
2021/03/28 06:11:19;;;;;;;5.97;1.90;;;20.40;40.70;;;;;;4973686;28;20583;-71
2021/03/28 06:14:13;;;;;;;2.70;1.40;;;20.30;40.70;;;;;;4960169;28;20469;-70
2021/03/28 06:16:46;;;;;;;2.83;1.50;;;20.30;40.70;;;;;;4974679;28;20477;-70
2021/03/28 06:20:06;;;;;;;1.50;1.40;;;20.30;40.70;;;;;;4977839;28;20504;-70
2021/03/28 06:22:53;;;;;;;2.23;2.00;;;20.30;40.80;;;;;;4963856;28;20493;-70
2021/03/28 06:25:42;;;;;;;2.33;1.67;;;20.30;40.80;;;;;;4945207;28;20469;-70
2021/03/28 06:28:45;;;;;;;2.30;1.87;;;20.30;41.50;;;;;;4972789;28;21476;-70
2021/03/28 06:31:46;;;;;;;1.90;1.80;;;20.30;40.60;;;;;;4972032;28;20987;-70
2021/03/28 06:34:58;;;;;;;2.60;1.17;;;20.40;40.60;;;;;;4970886;28;20477;-70
2021/03/28 06:38:15;;;;;;;2.63;1.50;;;20.40;40.50;;;;;;4971108;28;20981;-70
2021/03/28 06:40:56;;;;;;;2.00;1.20;;;20.30;40.60;;;;;;4955524;28;20903;-70
2021/03/28 06:43:45;;;;;;;4.03;1.50;;;20.30;40.60;;;;;;4967789;28;20988;-70
2021/03/28 06:46:45;;;;;;;4.73;2.03;;;20.30;40.80;;;;;;4962217;28;20528;-70
2021/03/28 06:49:34;;;;;;;2.90;2.10;;;20.20;40.80;;;;;;4976062;28;21023;-70
2021/03/28 06:52:07;;;;;;;3.40;1.63;;;20.20;40.80;;;;;;4981057;28;20825;-70
2021/03/28 06:54:56;;;;;;;4.80;2.20;;;20.20;41.00;;;;;;4976407;28;20495;-70
2021/03/28 06:58:07;;;;;;;1.80;1.70;;;20.20;40.90;;;;;;4977775;28;20484;-70
2021/03/28 07:01:16;;;;;;;6.73;1.53;;;20.20;40.90;;;;;;4931869;28;20990;-70
2021/03/28 07:03:58;;;;;;;3.30;1.60;;;20.30;40.80;;;;;;4902300;28;20470;-70
2021/03/28 07:06:27;;;;;;;2.10;1.43;;;20.30;40.60;;;;;;4977306;28;20513;-70
2021/03/28 07:09:14;;;;;;;1.90;1.50;;;20.30;40.50;;;;;;4979613;28;20482;-70
2021/03/28 07:11:58;;;;;;;3.23;1.80;;;20.40;40.70;;;;;;4974635;28;20489;-70
2021/03/28 07:15:11;;;;;;;5.70;1.70;;;20.30;40.60;;;;;;4962635;28;20536;-70
2021/03/28 07:18:22;;;;;;;4.57;1.90;;;20.30;40.70;;;;;;4964914;28;20534;-70
2021/03/28 07:21:08;;;;;;;1.87;1.60;;;20.20;40.80;;;;;;4954436;28;20473;-71
2021/03/28 07:23:59;;;;;;;3.60;2.00;;;20.20;40.90;;;;;;4978451;28;20492;-71
2021/03/28 07:26:47;;;;;;;1.33;1.20;;;20.20;40.90;;;;;;4975294;28;20494;-70
2021/03/28 07:29:36;;;;;;;4.63;2.40;;;20.10;41.00;;;;;;4975813;28;20477;-70
2021/03/28 07:32:20;;;;;;;2.30;1.63;;;20.20;41.10;;;;;;4977634;28;20485;-70
2021/03/28 07:35:31;;;;;;;2.00;1.47;;;20.10;41.00;;;;;;4978823;28;21043;-70
2021/03/28 07:38:28;;;;;;;3.63;1.67;;;20.10;41.00;;;;;;4980330;28;20482;-70
2021/03/28 07:41:25;;;;;;;2.83;1.83;;;20.10;41.20;;;;;;4938143;28;20504;-70
2021/03/28 07:44:07;;;;;;;1.57;1.57;;;20.10;41.10;;;;;;4971552;28;20477;-70
2021/03/28 07:46:59;;;;;;;3.10;1.60;;;20.10;41.10;;;;;;4975738;28;20485;-70
2021/03/28 07:49:37;;;;;;;3.10;1.47;;;20.10;41.10;;;;;;4978126;28;20490;-70
2021/03/28 07:52:39;;;;;;;5.73;2.00;;;20.10;41.00;;;;;;4977247;28;20461;-70
2021/03/28 07:55:19;;;;;;;2.07;1.80;;;20.10;41.20;;;;;;4952315;28;20481;-70
2021/03/28 07:58:16;;;;;;;3.50;1.87;;;20.10;41.10;;;;;;4977040;28;20477;-69
2021/03/28 08:01:23;;;;;;;4.57;1.50;;;20.20;41.20;;;;;;4965251;28;20532;-70
2021/03/28 08:04:13;;;;;;;2.93;2.00;;;20.20;41.10;;;;;;4861788;29;20557;-70
2021/03/28 08:06:43;;;;;;;1.63;1.30;;;20.20;41.10;;;;;;4975356;28;20485;-70
2021/03/28 08:09:33;;;;;;;2.23;2.03;;;20.30;41.20;;;;;;4979003;28;20476;-70
2021/03/28 08:12:33;;;;;;;2.10;1.40;;;20.30;41.10;;;;;;4974780;28;20490;-70
2021/03/28 08:15:26;;;;;;;3.27;1.53;;;20.20;41.10;;;;;;4974631;28;20480;-71
2021/03/28 08:18:05;;;;;;;3.57;2.20;;;20.20;41.10;;;;;;4975185;28;20972;-70
2021/03/28 08:20:52;;;;;;;3.10;1.77;;;20.20;41.20;;;;;;4976496;28;20479;-71
2021/03/28 08:23:31;;;;;;;2.40;1.40;;;20.10;41.20;;;;;;4947957;28;20539;-70
2021/03/28 08:26:08;;;;;;;2.40;1.57;;;20.10;41.20;;;;;;4965432;28;20474;-71
2021/03/28 08:29:06;;;;;;;6.03;1.90;;;20.10;41.20;;;;;;4975274;28;20913;-70
2021/03/28 08:31:34;;;;;;;4.17;1.47;;;20.10;41.20;;;;;;4930613;28;20489;-70
2021/03/28 08:34:42;;;;;;;2.67;1.80;;;20.10;41.40;;;;;;4977371;28;20484;-70
2021/03/28 08:37:40;;;;;;;7.20;2.20;;;20.10;41.30;;;;;;4976776;28;21022;-70
2021/03/28 08:40:38;;;;;;;1.63;1.40;;;20.20;41.40;;;;;;4972608;28;20500;-70
2021/03/28 08:43:38;;;;;;;2.20;1.50;;;20.30;41.10;;;;;;4970162;28;20482;-70
2021/03/28 08:46:21;;;;;;;4.53;1.70;;;20.30;41.10;;;;;;4976519;28;20461;-70
2021/03/28 08:48:50;;;;;;;2.50;1.43;;;20.40;41.00;;;;;;4947186;28;20486;-70
2021/03/28 08:51:27;;;;;;;2.40;2.13;;;20.40;41.00;;;;;;4963606;28;20493;-70
2021/03/28 08:54:03;;;;;;;2.83;1.83;;;20.40;40.90;;;;;;4972485;28;20469;-70
2021/03/28 08:56:42;;;;;;;4.50;1.53;;;20.40;40.90;;;;;;4964139;28;20855;-70
2021/03/28 08:59:17;;;;;;;2.47;2.27;;;20.40;40.90;;;;;;4975247;28;20574;-70
2021/03/28 09:01:47;;;;;;;3.47;1.90;;;20.30;41.00;;;;;;4973509;28;20489;-70
2021/03/28 09:04:34;;;;;;;4.20;2.20;;;20.30;41.10;;;;;;4976360;28;20489;-71
2021/03/28 09:07:12;;;;;;;4.77;1.70;;;20.30;41.20;;;;;;4978435;28;20473;-70
2021/03/28 09:09:52;;;;;;;3.40;1.80;;;20.30;41.20;;;;;;4975191;28;20919;-70
2021/03/28 09:12:31;;;;;;;4.07;1.77;;;20.20;41.30;;;;;;4943258;28;20993;-70
2021/03/28 09:15:17;;;;;;;2.13;1.97;;;20.20;41.40;;;;;;4973830;28;21229;-70
2021/03/28 09:17:51;;;;;;;1.87;1.77;;;20.10;41.50;;;;;;4956336;28;20469;-70
2021/03/28 09:20:46;;;;;;;7.90;1.80;;;20.20;41.50;;;;;;4971625;28;20492;-70
2021/03/28 09:23:38;;;;;;;2.50;1.60;;;20.10;41.50;;;;;;4974984;28;20478;-70
2021/03/28 09:26:11;;;;;;;1.27;1.10;;;20.10;41.50;;;;;;4974213;28;20959;-71
2021/03/28 09:28:43;;;;;;;3.87;1.77;;;20.20;41.50;;;;;;4964401;28;20552;-70
2021/03/28 09:31:11;;;;;;;1.97;1.40;;;20.20;41.40;;;;;;4970255;28;20485;-69
2021/03/28 09:34:02;;;;;;;3.77;1.97;;;20.20;41.40;;;;;;4963357;28;21211;-69
2021/03/28 09:36:46;;;;;;;1.80;1.53;;;20.30;41.40;;;;;;4974741;28;21252;-69
2021/03/28 09:39:36;;;;;;;5.93;1.93;;;20.30;41.30;;;;;;4962839;28;20861;-69
2021/03/28 09:42:12;;;;;;;3.03;1.90;;;20.30;41.30;;;;;;4973371;28;21077;-69
2021/03/28 09:44:43;;;;;;;1.53;1.40;;;20.30;41.30;;;;;;4968755;28;20490;-70
2021/03/28 09:47:12;;;;;;;2.67;1.30;;;20.30;41.40;;;;;;4975565;28;20485;-70
2021/03/28 09:49:50;;;;;;;3.50;1.10;;;20.30;41.50;;;;;;4971175;28;20491;-70
2021/03/28 09:52:40;;;;;;;5.50;1.60;;;20.20;41.50;;;;;;4971685;28;20483;-70
2021/03/28 09:55:33;;;;;;;2.80;1.67;;;20.20;41.40;;;;;;4970126;28;20532;-70
2021/03/28 09:58:25;;;;;;;1.87;1.77;;;20.20;41.70;;;;;;4977737;28;21118;-70
2021/03/28 10:00:58;;;;;;;2.30;1.63;;;20.20;41.60;;;;;;4962187;28;20982;-70
2021/03/28 10:03:25;;;;;;;1.50;1.40;;;20.10;41.70;;;;;;4967566;28;21024;-70
2021/03/28 10:05:59;;;;;;;5.30;1.63;;;20.10;41.60;;;;;;4968387;28;20477;-70
2021/03/28 10:08:26;;;;;;;2.73;1.63;;;20.10;41.50;;;;;;4974265;28;20517;-72
2021/03/28 10:11:06;;;;;;;3.77;1.57;;;20.10;41.60;;;;;;4976628;28;20497;-69
2021/03/28 10:13:45;;;;;;;3.47;1.17;;;20.10;41.60;;;;;;4958391;28;20498;-70
2021/03/28 10:16:16;;;;;;;7.63;1.57;;;20.10;41.70;;;;;;4961443;28;20497;-69
2021/03/28 10:19:00;;;;;;;3.43;1.77;;;20.20;41.70;;;;;;4975609;28;21080;-70
2021/03/28 10:21:47;;;;;;;3.03;1.60;;;20.30;41.60;;;;;;4971820;28;20481;-70
2021/03/28 10:24:39;;;;;;;1.80;1.70;;;20.30;41.40;;;;;;4974579;28;20553;-70
2021/03/28 10:27:41;;;;;;;2.20;1.30;;;20.30;41.40;;;;;;4976813;28;20473;-69
2021/03/28 10:30:15;;;;;;;1.87;1.40;;;20.30;41.40;;;;;;4976195;28;20500;-69
2021/03/28 10:32:48;;;;;;;1.37;1.27;;;20.30;41.60;;;;;;4976645;28;20538;-70
2021/03/28 10:35:53;;;;;;;2.20;1.40;;;20.20;41.60;;;;;;4979170;28;20851;-70
2021/03/28 10:38:56;;;;;;;5.33;1.77;;;20.20;41.70;;;;;;4979066;28;21554;-70
2021/03/28 10:41:34;;;;;;;2.90;1.30;;;20.30;41.60;;;;;;4948896;28;20479;-70
2021/03/28 10:44:07;;;;;;;1.37;1.07;;;20.30;41.60;;;;;;4963671;28;20524;-70
2021/03/28 10:47:09;;;;;;;4.53;1.77;;;20.30;41.60;;;;;;4982665;28;20605;-70
2021/03/28 10:50:14;;;;;;;7.90;1.50;;;20.30;41.60;;;;;;4978883;28;20496;-70
2021/03/28 10:53:06;;;;;;;1.43;1.17;;;20.30;41.60;;;;;;4979528;28;20513;-70
2021/03/28 10:55:58;;;;;;;2.40;1.30;;;20.30;41.70;;;;;;4973125;28;20493;-70
2021/03/28 10:59:13;;;;;;;1.97;1.23;;;20.30;41.70;;;;;;4974105;28;20489;-70
2021/03/28 11:02:14;;;;;;;3.60;1.43;;;20.20;41.80;;;;;;4975296;28;20489;-70
2021/03/28 11:05:04;;;;;;;2.33;1.23;;;20.20;41.90;;;;;;4935508;28;20539;-69
2021/03/28 11:07:46;;;;;;;6.63;1.37;;;20.20;42.00;;;;;;4977283;28;20462;-71
2021/03/28 11:10:41;;;;;;;1.93;1.20;;;20.20;42.00;;;;;;5007264;28;20464;-70
2021/03/28 11:13:15;;;;;;;3.73;1.30;;;20.10;41.90;;;;;;4996470;28;21091;-71
2021/03/28 11:15:56;;;;;;;1.40;1.00;;;20.10;41.90;;;;;;4981467;28;21043;-70
2021/03/28 11:18:47;;;;;;;1.83;1.10;;;20.10;42.00;;;;;;4974338;28;20473;-70
2021/03/28 11:21:24;;;;;;;2.87;1.30;;;20.10;42.10;;;;;;4979425;28;20515;-71
2021/03/28 11:24:03;;;;;;;2.23;0.90;;;20.10;42.10;;;;;;4951808;28;20539;-70
2021/03/28 11:27:00;;;;;;;4.53;1.37;;;20.10;42.00;;;;;;4976380;28;20482;-70
2021/03/28 11:29:47;;;;;;;4.77;1.33;;;20.10;42.00;;;;;;4979421;28;20911;-70
2021/03/28 11:32:22;;;;;;;1.80;1.10;;;20.10;42.00;;;;;;4974882;28;20604;-70
2021/03/28 11:35:04;;;;;;;2.30;1.30;;;20.10;42.10;;;;;;4978543;28;20476;-69
2021/03/28 11:37:40;;;;;;;2.13;1.10;;;20.10;42.30;;;;;;4981727;28;20830;-70
2021/03/28 11:40:34;;;;;;;2.00;1.40;;;20.10;42.20;;;;;;4977132;28;21159;-70
2021/03/28 11:43:34;;;;;;;3.37;1.30;;;20.20;42.00;;;;;;4956568;28;20551;-70
2021/03/28 11:46:20;;;;;;;3.17;1.00;;;20.30;41.90;;;;;;4978289;28;20480;-70
2021/03/28 11:48:48;;;;;;;1.27;1.17;;;20.30;41.90;;;;;;4968518;28;20485;-70
2021/03/28 11:51:19;;;;;;;7.00;1.40;;;20.30;41.70;;;;;;4980681;28;20484;-70
2021/03/28 11:53:45;;;;;;;3.60;1.20;;;20.30;41.90;;;;;;4975413;28;20490;-70
2021/03/28 11:56:36;;;;;;;2.00;1.40;;;20.30;41.70;;;;;;4976411;28;20563;-70
2021/03/28 11:59:02;;;;;;;2.07;1.13;;;20.30;41.90;;;;;;4980318;28;21031;-70
2021/03/28 12:02:00;;;;;;;1.70;1.20;;;20.30;42.00;;;;;;4965586;28;20493;-70
2021/03/28 12:04:28;;;;;;;3.67;1.20;;;20.30;42.00;;;;;;4977839;28;20489;-70
2021/03/28 12:06:57;;;;;;;1.50;1.40;;;20.20;41.90;;;;;;4980739;28;21126;-70
2021/03/28 12:09:28;;;;;;;3.43;0.83;;;20.20;42.00;;;;;;4967153;28;20476;-70
2021/03/28 12:11:55;;;;;;;2.53;1.50;;;20.20;42.20;;;;;;4948208;28;20960;-70
2021/03/28 12:14:27;;;;;;;1.53;1.40;;;20.10;42.10;;;;;;4944987;28;20489;-70
2021/03/28 12:17:30;;;;;;;2.43;1.10;;;20.10;42.10;;;;;;4971585;28;20478;-70
2021/03/28 12:20:21;;;;;;;2.10;1.30;;;20.10;42.20;;;;;;4965384;28;21027;-69
2021/03/28 12:23:15;;;;;;;2.47;1.87;;;20.20;42.40;;;;;;4977966;28;20474;-69
2021/03/28 12:25:41;;;;;;;2.10;1.00;;;20.10;42.20;;;;;;4952261;28;20494;-70
2021/03/28 12:28:25;;;;;;;3.23;1.17;;;20.10;42.30;;;;;;4978954;28;20574;-70
2021/03/28 12:30:51;;;;;;;3.90;1.07;;;20.10;42.20;;;;;;4948515;28;21083;-69
2021/03/28 12:33:17;;;;;;;2.17;1.13;;;20.10;42.30;;;;;;4973358;28;20536;-70
2021/03/28 12:36:05;;;;;;;1.83;1.20;;;20.10;42.30;;;;;;4979078;28;20485;-70
2021/03/28 12:38:48;;;;;;;1.30;0.87;;;20.20;42.50;;;;;;4974285;28;20478;-70
2021/03/28 12:41:28;;;;;;;1.90;1.40;;;20.20;42.40;;;;;;4973845;28;20563;-70
2021/03/28 12:44:14;;;;;;;1.43;1.33;;;20.20;42.50;;;;;;4963592;28;20481;-69
2021/03/28 12:46:59;;;;;;;6.87;1.80;;;20.20;42.50;;;;;;4962260;28;20489;-70
2021/03/28 12:49:29;;;;;;;2.20;1.07;;;20.30;42.60;;;;;;4950318;28;20486;-69
2021/03/28 12:52:23;;;;;;;1.53;1.30;;;20.30;42.60;;;;;;4969482;28;21230;-70
2021/03/28 12:55:14;;;;;;;2.10;1.17;;;20.20;42.60;;;;;;4975191;28;20474;-69
2021/03/28 12:57:42;;;;;;;3.73;0.93;;;20.20;43.10;;;;;;4975735;28;20486;-70
2021/03/28 13:00:26;;;;;;;3.60;1.27;;;20.20;42.80;;;;;;4962558;28;20954;-69
2021/03/28 13:02:52;;;;;;;2.47;1.40;;;20.20;43.00;;;;;;4939614;28;20533;-69
2021/03/28 13:05:23;;;;;;;1.90;1.20;;;20.10;43.20;;;;;;4976627;28;20477;-70
2021/03/28 13:07:51;;;;;;;2.87;1.40;;;20.10;43.40;;;;;;4980317;28;20493;-69
2021/03/28 13:10:22;;;;;;;4.40;1.47;;;20.10;44.30;;;;;;4964642;28;20550;-70
2021/03/28 13:12:53;;;;;;;1.80;1.43;;;20.10;43.50;;;;;;4970202;28;20489;-69
2021/03/28 13:15:38;;;;;;;2.73;1.30;;;20.10;43.50;;;;;;4970943;28;20496;-69
2021/03/28 13:18:14;;;;;;;2.83;1.30;;;20.10;43.70;;;;;;4972573;28;20469;-70
2021/03/28 13:20:41;;;;;;;1.90;1.23;;;20.10;43.70;;;;;;4975746;28;20924;-70
2021/03/28 13:23:17;;;;;;;0.93;0.83;;;20.20;43.80;;;;;;4959839;28;20486;-70
2021/03/28 13:25:43;;;;;;;2.07;1.47;;;20.20;43.70;;;;;;4968160;28;20481;-69
2021/03/28 13:28:28;;;;;;;1.30;1.00;;;20.20;43.80;;;;;;4978523;28;20477;-70
2021/03/28 13:31:13;;;;;;;4.73;1.10;;;20.30;43.80;;;;;;4974795;28;20474;-69
2021/03/28 13:33:40;;;;;;;3.20;0.90;;;20.30;43.70;;;;;;4975142;28;20491;-70
2021/03/28 13:36:17;;;;;;;2.40;1.03;;;20.30;43.60;;;;;;4974378;28;21494;-70
2021/03/28 13:38:54;;;;;;;3.67;1.30;;;20.40;43.60;;;;;;4966287;28;20484;-70
2021/03/28 13:41:23;;;;;;;2.43;1.00;;;20.40;44.30;;;;;;4971813;28;20481;-70
2021/03/28 13:43:49;;;;;;;2.10;1.03;;;20.30;43.70;;;;;;4969008;28;20520;-69
2021/03/28 13:46:17;;;;;;;9.20;1.43;;;20.30;43.80;;;;;;4976545;28;20493;-70
2021/03/28 13:48:43;;;;;;;2.03;1.20;;;20.30;43.90;;;;;;4965419;28;20500;-70
2021/03/28 13:51:18;;;;;;;1.53;1.40;;;20.30;44.00;;;;;;4976408;28;20496;-69
2021/03/28 13:53:48;;;;;;;2.17;0.90;;;20.30;44.00;;;;;;4975097;28;20501;-71
2021/03/28 13:56:43;;;;;;;3.43;1.03;;;20.30;44.10;;;;;;4973570;28;21221;-71
2021/03/28 13:59:21;;;;;;;3.57;0.97;;;20.30;44.10;;;;;;4975469;28;20481;-69
2021/03/28 14:02:17;;;;;;;3.13;1.03;;;20.30;44.00;;;;;;4974292;28;20847;-70
2021/03/28 14:04:44;;;;;;;3.60;1.37;;;20.40;44.00;;;;;;4974971;28;20574;-70
2021/03/28 14:07:21;;;;;;;2.50;1.10;;;20.40;44.00;;;;;;4975566;28;20503;-69